Time;durP1;ratioP1;P1;durP2;ratioP2;P2;SDS_P1;SDS_P2;PMS_P1;PMS_P2;Temp;Humidity;BMP_temperature;BMP_pressure;BME280_temperature;BME280_humidity;BME280_pressure;Samples;Min_cycle;Max_cycle;Signal;HPM_P1;HPM_P2
2023/03/04 00:01:59;;;;;;;29.70;17.25;;;;;;;;;;5128049;27;20023;-48
2023/03/04 00:04:26;;;;;;;31.73;18.08;;;;;;;;;;5127176;27;20026;-49
2023/03/04 00:06:52;;;;;;;29.33;17.13;;;;;;;;;;5127467;27;20051;-48
2023/03/04 00:09:18;;;;;;;31.60;18.27;;;;;;;;;;5127359;27;20520;-47
2023/03/04 00:11:44;;;;;;;34.22;19.23;;;;;;;;;;5127496;27;20311;-50
2023/03/04 00:14:10;;;;;;;34.40;19.27;;;;;;;;;;5127094;27;20118;-48
2023/03/04 00:16:36;;;;;;;29.58;17.95;;;;;;;;;;5127510;27;20587;-49
2023/03/04 00:19:02;;;;;;;31.33;17.50;;;;;;;;;;5126537;27;20035;-46
2023/03/04 00:21:28;;;;;;;31.30;17.85;;;;;;;;;;5126105;27;20015;-46
2023/03/04 00:23:54;;;;;;;31.17;18.45;;;;;;;;;;5127095;27;20549;-46
2023/03/04 00:26:20;;;;;;;34.97;19.35;;;;;;;;;;5126935;27;20507;-49
2023/03/04 00:28:46;;;;;;;33.97;19.88;;;;;;;;;;5127151;27;20455;-50
2023/03/04 00:31:13;;;;;;;32.75;20.15;;;;;;;;;;5126864;27;20029;-48
2023/03/04 00:33:39;;;;;;;34.80;20.58;;;;;;;;;;5126706;27;20031;-48
2023/03/04 00:36:05;;;;;;;32.83;20.10;;;;;;;;;;5126750;27;20038;-48
2023/03/04 00:38:32;;;;;;;34.90;19.83;;;;;;;;;;5127746;27;20489;-48
2023/03/04 00:40:59;;;;;;;34.20;19.17;;;;;;;;;;5127612;27;20027;-47
2023/03/04 00:43:25;;;;;;;28.77;18.00;;;;;;;;;;5125416;27;20035;-46
2023/03/04 00:45:51;;;;;;;29.88;17.73;;;;;;;;;;5127478;27;20027;-47
2023/03/04 00:48:18;;;;;;;31.65;17.25;;;;;;;;;;5126700;27;20395;-47
2023/03/04 00:50:45;;;;;;;28.95;16.67;;;;;;;;;;5127772;27;20027;-49
2023/03/04 00:53:11;;;;;;;26.88;16.20;;;;;;;;;;5127423;27;20533;-49
2023/03/04 00:55:37;;;;;;;28.73;16.55;;;;;;;;;;5127377;27;20023;-48
2023/03/04 00:58:03;;;;;;;27.48;16.55;;;;;;;;;;5127212;27;20500;-47
2023/03/04 01:00:29;;;;;;;28.90;16.85;;;;;;;;;;5128074;27;20031;-47
2023/03/04 01:02:56;;;;;;;28.63;16.23;;;;;;;;;;5126913;27;20478;-48
2023/03/04 06:16:03;;;;;;;24.65;14.15;;;;;;;;;;5127398;27;20046;-48
2023/03/04 06:18:29;;;;;;;23.50;13.90;;;;;;;;;;5127872;27;20046;-48
2023/03/04 06:20:59;;;;;;;25.42;15.02;;;;;;;;;;5127296;27;20027;-47
2023/03/04 06:23:26;;;;;;;24.98;15.05;;;;;;;;;;5127662;27;20059;-47
2023/03/04 06:25:53;;;;;;;24.58;15.30;;;;;;;;;;5127715;28;20028;-48
2023/03/04 06:28:20;;;;;;;25.50;14.73;;;;;;;;;;5128399;28;20490;-47
2023/03/04 06:30:46;;;;;;;22.75;13.20;;;;;;;;;;5127653;27;20042;-49
2023/03/04 06:33:12;;;;;;;24.92;14.18;;;;;;;;;;5127693;28;20432;-50
2023/03/04 06:35:39;;;;;;;26.08;14.75;;;;;;;;;;5127629;27;20102;-48
2023/03/04 06:38:05;;;;;;;23.85;13.10;;;;;;;;;;5128068;28;20084;-46
2023/03/04 06:40:31;;;;;;;22.58;13.27;;;;;;;;;;5127983;27;20494;-47
2023/03/04 06:42:57;;;;;;;21.15;13.23;;;;;;;;;;5127616;28;20030;-49
2023/03/04 06:45:23;;;;;;;24.42;14.70;;;;;;;;;;5127711;28;20019;-48
2023/03/04 06:47:49;;;;;;;26.33;15.02;;;;;;;;;;5127608;27;20126;-48
2023/03/04 06:50:16;;;;;;;24.95;13.75;;;;;;;;;;5127792;28;20027;-47
2023/03/04 06:52:42;;;;;;;24.98;13.93;;;;;;;;;;5127459;28;20027;-46
2023/03/04 06:55:08;;;;;;;25.13;15.57;;;;;;;;;;5127790;27;20031;-46
2023/03/04 06:57:34;;;;;;;23.40;14.20;;;;;;;;;;5115008;28;20651;-48
2023/03/04 07:00:02;;;;;;;26.40;15.23;;;;;;;;;;5102267;28;20082;-46
2023/03/04 07:02:29;;;;;;;25.00;15.38;;;;;;;;;;5101140;28;20028;-47
2023/03/04 07:04:55;;;;;;;23.70;13.50;;;;;;;;;;5107981;28;20134;-48
2023/03/04 07:07:21;;;;;;;22.90;13.43;;;;;;;;;;5088045;28;20032;-46
2023/03/04 07:09:47;;;;;;;22.55;13.73;;;;;;;;;;5095894;28;20027;-45
2023/03/04 07:12:13;;;;;;;23.50;12.85;;;;;;;;;;5092245;28;20024;-47
2023/03/04 07:14:39;;;;;;;23.30;13.80;;;;;;;;;;5088105;28;20670;-45
2023/03/04 07:17:05;;;;;;;22.70;13.10;;;;;;;;;;5087916;28;20039;-44
2023/03/04 07:19:31;;;;;;;26.58;13.63;;;;;;;;;;5088501;28;20032;-47
2023/03/04 07:21:57;;;;;;;24.45;14.93;;;;;;;;;;5087852;28;20510;-45
2023/03/04 07:24:23;;;;;;;24.23;14.35;;;;;;;;;;5102622;28;20364;-44
2023/03/04 07:26:49;;;;;;;25.50;14.57;;;;;;;;;;5108299;28;20038;-48
2023/03/04 07:29:15;;;;;;;21.92;13.38;;;;;;;;;;5108220;28;20115;-48
2023/03/04 07:31:42;;;;;;;22.20;13.13;;;;;;;;;;5108668;28;20472;-46
2023/03/04 07:34:09;;;;;;;22.95;13.23;;;;;;;;;;5112020;28;20428;-45
2023/03/04 07:36:36;;;;;;;22.10;12.95;;;;;;;;;;5091149;28;20060;-45
2023/03/04 07:39:02;;;;;;;21.75;13.07;;;;;;;;;;5090063;28;20024;-45
2023/03/04 07:41:29;;;;;;;23.80;13.70;;;;;;;;;;5089751;28;20032;-47
2023/03/04 07:43:56;;;;;;;23.63;13.73;;;;;;;;;;5089458;28;20518;-45
2023/03/04 07:46:22;;;;;;;22.27;13.45;;;;;;;;;;5089696;28;20487;-47
2023/03/04 07:48:48;;;;;;;25.23;14.05;;;;;;;;;;5089882;28;20028;-47
2023/03/04 07:51:17;;;;;;;22.58;13.45;;;;;;;;;;5089641;28;20059;-46
2023/03/04 07:53:44;;;;;;;24.20;14.05;;;;;;;;;;5099853;28;20035;-46
2023/03/04 07:56:16;;;;;;;23.98;13.95;;;;;;;;;;5105109;28;20152;-45
2023/03/04 07:58:42;;;;;;;24.65;14.50;;;;;;;;;;5100164;28;20471;-49
2023/03/04 08:01:12;;;;;;;25.05;13.95;;;;;;;;;;5104465;27;20411;-45
2023/03/04 08:03:39;;;;;;;22.45;12.95;;;;;;;;;;5110853;28;20031;-46
2023/03/04 08:06:09;;;;;;;24.27;14.15;;;;;;;;;;5107269;27;20031;-46
2023/03/04 08:08:35;;;;;;;23.80;14.00;;;;;;;;;;5106691;27;20410;-45
2023/03/04 08:11:05;;;;;;;23.13;14.18;;;;;;;;;;5110014;28;20105;-45
2023/03/04 08:13:31;;;;;;;25.73;14.85;;;;;;;;;;5095888;28;20027;-45
2023/03/04 08:15:58;;;;;;;21.98;12.82;;;;;;;;;;5107616;28;20340;-50
2023/03/04 08:18:24;;;;;;;22.85;12.73;;;;;;;;;;5108288;28;20039;-48
2023/03/04 08:20:51;;;;;;;20.15;12.07;;;;;;;;;;5106618;28;20039;-48
2023/03/04 08:23:17;;;;;;;20.30;12.38;;;;;;;;;;5108433;28;20026;-44
2023/03/04 08:25:44;;;;;;;22.92;13.55;;;;;;;;;;5109809;28;20176;-45
2023/03/04 08:28:12;;;;;;;24.42;14.50;;;;;;;;;;5108355;28;20028;-44
2023/03/04 08:30:38;;;;;;;22.23;13.52;;;;;;;;;;5108973;28;20023;-47
2023/03/04 08:33:05;;;;;;;22.67;13.93;;;;;;;;;;5108654;28;20420;-46
2023/03/04 08:35:31;;;;;;;24.58;14.00;;;;;;;;;;5109955;27;20032;-44
2023/03/04 08:37:57;;;;;;;22.95;13.32;;;;;;;;;;5108456;28;20027;-48
2023/03/04 08:40:25;;;;;;;21.08;12.18;;;;;;;;;;5108765;28;20464;-47
2023/03/04 08:42:51;;;;;;;21.23;13.05;;;;;;;;;;5108417;28;20024;-47
2023/03/04 08:45:17;;;;;;;21.83;13.07;;;;;;;;;;5108769;28;20034;-45
2023/03/04 08:47:43;;;;;;;19.60;12.32;;;;;;;;;;5108704;28;20063;-47
2023/03/04 08:50:10;;;;;;;19.95;12.07;;;;;;;;;;5108021;28;20027;-48
2023/03/04 08:52:37;;;;;;;24.08;14.55;;;;;;;;;;5108099;28;20024;-46
2023/03/04 08:55:03;;;;;;;23.15;14.23;;;;;;;;;;5108624;28;20035;-48
2023/03/04 08:57:29;;;;;;;23.42;14.90;;;;;;;;;;5107776;28;20031;-45
2023/03/04 08:59:55;;;;;;;21.45;12.98;;;;;;;;;;5107664;28;20039;-49
2023/03/04 09:02:21;;;;;;;22.45;13.55;;;;;;;;;;5108131;28;20061;-46
2023/03/04 09:04:47;;;;;;;20.05;12.43;;;;;;;;;;5108446;28;20047;-45
2023/03/04 09:07:13;;;;;;;23.92;14.43;;;;;;;;;;5108020;28;20488;-46
2023/03/04 09:09:39;;;;;;;23.30;13.60;;;;;;;;;;5106606;28;20023;-49
2023/03/04 09:12:05;;;;;;;22.13;13.07;;;;;;;;;;5106789;28;20024;-47
2023/03/04 09:14:34;;;;;;;22.55;13.23;;;;;;;;;;5106854;28;20055;-47
2023/03/04 09:17:00;;;;;;;21.05;13.18;;;;;;;;;;5106598;28;20028;-45
2023/03/04 09:19:26;;;;;;;21.17;12.05;;;;;;;;;;5106702;28;20108;-46
2023/03/04 09:21:58;;;;;;;20.13;11.82;;;;;;;;;;5106297;28;20099;-47
2023/03/04 09:24:25;;;;;;;22.00;13.23;;;;;;;;;;5106460;28;20034;-46
2023/03/04 09:26:52;;;;;;;26.80;14.27;;;;;;;;;;5106334;28;20031;-45
2023/03/04 09:29:18;;;;;;;19.77;12.38;;;;;;;;;;5106450;28;20406;-45
2023/03/04 09:31:44;;;;;;;21.90;12.77;;;;;;;;;;5107133;28;20474;-46
2023/03/04 09:34:10;;;;;;;22.77;13.52;;;;;;;;;;5106407;28;20089;-47
2023/03/04 09:36:36;;;;;;;19.05;12.23;;;;;;;;;;5105976;28;20053;-48
2023/03/04 09:39:04;;;;;;;21.63;12.38;;;;;;;;;;5106301;28;20028;-45
2023/03/04 09:41:43;;;;;;;19.10;11.60;;;;;;;;;;5106486;28;20039;-49
2023/03/04 09:44:20;;;;;;;23.63;13.43;;;;;;;;;;5106168;28;20032;-45
2023/03/04 09:46:47;;;;;;;24.73;14.07;;;;;;;;;;5106780;28;20094;-47
2023/03/04 09:49:13;;;;;;;25.33;13.73;;;;;;;;;;5106523;28;20115;-46
2023/03/04 09:52:03;;;;;;;19.70;11.75;;;;;;;;;;5105895;28;20406;-49
2023/03/04 09:54:32;;;;;;;20.88;12.23;;;;;;;;;;5092265;28;20040;-47
2023/03/04 09:57:16;;;;;;;20.92;12.25;;;;;;;;;;5105547;28;20542;-45
2023/03/04 09:59:44;;;;;;;24.13;14.10;;;;;;;;;;5105950;28;20061;-46
2023/03/04 10:02:16;;;;;;;23.30;13.68;;;;;;;;;;5106129;28;20503;-48
2023/03/04 10:04:49;;;;;;;28.38;15.95;;;;;;;;;;5106477;28;20448;-48
2023/03/04 10:07:18;;;;;;;27.33;14.68;;;;;;;;;;5106675;28;20027;-45
2023/03/04 10:09:51;;;;;;;26.10;15.10;;;;;;;;;;5087984;28;20444;-47
2023/03/04 10:12:22;;;;;;;24.48;14.93;;;;;;;;;;5105674;28;20035;-46
2023/03/04 10:14:58;;;;;;;25.63;15.52;;;;;;;;;;5090403;28;20041;-47
2023/03/04 10:17:31;;;;;;;28.25;15.93;;;;;;;;;;5085994;28;20491;-46
2023/03/04 10:20:18;;;;;;;24.27;14.40;;;;;;;;;;5085626;28;20068;-48
2023/03/04 10:22:45;;;;;;;20.92;13.10;;;;;;;;;;5084861;28;20145;-45
2023/03/04 10:25:18;;;;;;;23.65;14.15;;;;;;;;;;5085398;28;20055;-48
2023/03/04 10:27:49;;;;;;;24.23;14.60;;;;;;;;;;5085103;28;20073;-48
2023/03/04 10:30:38;;;;;;;25.85;15.15;;;;;;;;;;5085262;28;20099;-46
2023/03/04 10:33:15;;;;;;;25.30;15.07;;;;;;;;;;5037827;28;20044;-48
2023/03/04 10:35:44;;;;;;;27.67;16.05;;;;;;;;;;5085104;28;20028;-46
2023/03/04 10:38:12;;;;;;;32.72;17.65;;;;;;;;;;5085313;28;20196;-45
2023/03/04 10:40:39;;;;;;;33.92;19.27;;;;;;;;;;5085278;28;20457;-47
2023/03/04 10:43:07;;;;;;;26.85;16.63;;;;;;;;;;5084785;28;20038;-48
2023/03/04 10:45:37;;;;;;;29.13;16.70;;;;;;;;;;5085610;28;20012;-46
2023/03/04 10:48:03;;;;;;;26.50;16.08;;;;;;;;;;5085019;28;20407;-45
2023/03/04 10:50:33;;;;;;;25.35;15.45;;;;;;;;;;5085815;28;20062;-47
2023/03/04 10:52:59;;;;;;;26.92;15.55;;;;;;;;;;5085638;28;20471;-46
2023/03/04 10:55:27;;;;;;;25.50;14.90;;;;;;;;;;5085999;28;20057;-46
2023/03/04 10:57:56;;;;;;;25.52;14.60;;;;;;;;;;5084966;28;20563;-45
2023/03/04 11:00:28;;;;;;;20.40;12.43;;;;;;;;;;5084858;28;20024;-45
2023/03/04 11:03:14;;;;;;;24.00;12.90;;;;;;;;;;5084884;28;20035;-46
2023/03/04 11:05:41;;;;;;;24.88;14.82;;;;;;;;;;5085246;28;20020;-48
2023/03/04 11:08:16;;;;;;;23.27;14.65;;;;;;;;;;5088844;28;20032;-48
2023/03/04 11:10:43;;;;;;;23.02;13.52;;;;;;;;;;5089327;28;20483;-44
2023/03/04 11:13:11;;;;;;;23.05;14.18;;;;;;;;;;5089157;28;20028;-46
2023/03/04 11:15:50;;;;;;;21.50;13.30;;;;;;;;;;5089238;28;20437;-46
2023/03/04 11:18:16;;;;;;;25.67;14.35;;;;;;;;;;5089111;28;20043;-47
2023/03/04 11:20:48;;;;;;;24.42;14.82;;;;;;;;;;5089005;28;20308;-47
2023/03/04 11:23:19;;;;;;;26.83;15.52;;;;;;;;;;5088887;28;20392;-48
2023/03/04 11:25:49;;;;;;;29.65;16.35;;;;;;;;;;5088561;28;20039;-46
2023/03/04 11:28:22;;;;;;;26.08;15.52;;;;;;;;;;5088967;28;20110;-48
2023/03/04 11:30:54;;;;;;;24.67;15.70;;;;;;;;;;5088723;28;20372;-48
2023/03/04 11:33:23;;;;;;;25.73;15.45;;;;;;;;;;5094890;28;20028;-45
2023/03/04 11:36:25;;;;;;;27.33;15.73;;;;;;;;;;5108040;28;20039;-46
2023/03/04 11:38:51;;;;;;;24.38;15.20;;;;;;;;;;5047094;28;20095;-47
2023/03/04 11:41:23;;;;;;;21.92;13.50;;;;;;;;;;5090824;28;20114;-48
2023/03/04 11:43:49;;;;;;;24.88;14.20;;;;;;;;;;5108939;28;20060;-44
2023/03/04 11:46:18;;;;;;;23.17;14.38;;;;;;;;;;5105018;28;20019;-48
2023/03/04 11:48:53;;;;;;;22.13;13.73;;;;;;;;;;5110524;28;20027;-45
2023/03/04 11:51:25;;;;;;;25.17;14.40;;;;;;;;;;5111515;27;20047;-48
2023/03/04 11:54:06;;;;;;;23.98;14.95;;;;;;;;;;5112599;27;20035;-48
2023/03/04 11:56:36;;;;;;;24.50;14.18;;;;;;;;;;5109645;28;20126;-45
2023/03/04 11:59:09;;;;;;;25.00;13.50;;;;;;;;;;5110497;28;20038;-48
2023/03/04 12:01:52;;;;;;;21.85;12.55;;;;;;;;;;5109412;28;20034;-48
2023/03/04 12:04:21;;;;;;;21.00;13.02;;;;;;;;;;5108880;28;20053;-45
2023/03/04 12:06:50;;;;;;;20.10;11.35;;;;;;;;;;5108504;28;20023;-48
2023/03/04 12:09:22;;;;;;;22.88;13.27;;;;;;;;;;5108572;28;20028;-45
2023/03/04 12:12:05;;;;;;;20.55;12.73;;;;;;;;;;5103974;28;20026;-48
2023/03/04 12:14:40;;;;;;;19.60;11.95;;;;;;;;;;5088051;28;20437;-47
2023/03/04 12:17:24;;;;;;;19.70;12.15;;;;;;;;;;5104806;28;20111;-46
2023/03/04 12:20:13;;;;;;;25.52;14.55;;;;;;;;;;5099136;28;20031;-46
2023/03/04 12:22:50;;;;;;;36.95;20.90;;;;;;;;;;5110550;28;20040;-47
2023/03/04 12:25:16;;;;;;;37.78;20.98;;;;;;;;;;5110096;28;20111;-46
2023/03/04 12:27:57;;;;;;;33.70;19.80;;;;;;;;;;5110482;28;20031;-44
2023/03/04 12:30:32;;;;;;;31.48;18.15;;;;;;;;;;5106201;28;20031;-48
2023/03/04 12:33:04;;;;;;;30.17;18.30;;;;;;;;;;5109751;28;20028;-49
2023/03/04 12:35:33;;;;;;;25.23;14.82;;;;;;;;;;5109854;28;20093;-47
2023/03/04 12:38:08;;;;;;;23.90;14.20;;;;;;;;;;5109872;28;20030;-47
2023/03/04 12:40:54;;;;;;;23.80;14.15;;;;;;;;;;5109422;28;20036;-49
2023/03/04 12:43:20;;;;;;;18.63;12.10;;;;;;;;;;5103629;28;20023;-47
2023/03/04 12:46:02;;;;;;;19.30;11.95;;;;;;;;;;5107424;28;20023;-48
2023/03/04 12:48:29;;;;;;;20.92;13.18;;;;;;;;;;5106848;28;20034;-48
2023/03/04 12:50:58;;;;;;;24.55;15.00;;;;;;;;;;5106102;28;20028;-45
2023/03/04 12:53:43;;;;;;;25.05;14.98;;;;;;;;;;5107169;28;20085;-48
2023/03/04 12:56:19;;;;;;;21.25;12.60;;;;;;;;;;5110359;28;20028;-45
2023/03/04 12:58:45;;;;;;;19.38;11.68;;;;;;;;;;5108535;28;20111;-45
2023/03/04 13:01:16;;;;;;;16.55;10.80;;;;;;;;;;5109322;28;20031;-49
2023/03/04 13:04:11;;;;;;;17.17;10.80;;;;;;;;;;5109083;28;20398;-47
2023/03/04 13:07:12;;;;;;;17.10;10.57;;;;;;;;;;5094982;28;20413;-47
2023/03/04 13:09:38;;;;;;;17.30;11.02;;;;;;;;;;5034258;28;20037;-48
2023/03/04 13:12:15;;;;;;;16.52;11.20;;;;;;;;;;5088551;28;20050;-47
2023/03/04 13:15:01;;;;;;;18.08;10.55;;;;;;;;;;5109082;28;20479;-49
2023/03/04 13:17:38;;;;;;;16.35;10.63;;;;;;;;;;5106027;28;20104;-49
2023/03/04 13:20:13;;;;;;;16.77;10.57;;;;;;;;;;5107960;28;20023;-45
2023/03/04 13:22:39;;;;;;;15.70;9.82;;;;;;;;;;5108249;28;20035;-44
2023/03/04 13:25:24;;;;;;;17.83;10.10;;;;;;;;;;5106128;28;20020;-45
2023/03/04 13:28:05;;;;;;;16.98;10.50;;;;;;;;;;5104580;27;20400;-46
2023/03/04 13:30:32;;;;;;;18.55;11.70;;;;;;;;;;5108101;28;20378;-46
2023/03/04 13:32:58;;;;;;;24.55;14.50;;;;;;;;;;5118881;27;20106;-45
2023/03/04 13:35:43;;;;;;;26.08;16.48;;;;;;;;;;5127000;27;20027;-46
2023/03/04 13:38:30;;;;;;;22.55;13.50;;;;;;;;;;5109166;28;20028;-47
2023/03/04 13:41:15;;;;;;;20.27;13.15;;;;;;;;;;5104379;28;20026;-47
2023/03/04 13:43:41;;;;;;;;;;;;;;;;;;5100324;28;20043;-47
2023/03/04 13:46:19;;;;;;;27.83;15.35;;;;;;;;;;5101366;28;19919;-47
2023/03/04 13:48:51;;;;;;;26.70;15.88;;;;;;;;;;5107600;28;20027;-47
2023/03/04 13:51:26;;;;;;;22.00;13.60;;;;;;;;;;5098713;28;20028;-46
2023/03/04 13:53:53;;;;;;;19.95;12.32;;;;;;;;;;5100809;28;20020;-49
2023/03/04 13:56:30;;;;;;;19.15;11.45;;;;;;;;;;5107222;28;20023;-45
2023/03/04 13:59:02;;;;;;;18.20;11.48;;;;;;;;;;5106664;28;20085;-45
2023/03/04 14:01:30;;;;;;;22.55;13.35;;;;;;;;;;5105465;28;20031;-47
2023/03/04 14:03:57;;;;;;;17.77;11.38;;;;;;;;;;5108158;28;20024;-45
2023/03/04 14:06:27;;;;;;;23.33;14.70;;;;;;;;;;5107873;28;20024;-46
2023/03/04 14:08:55;;;;;;;19.17;11.85;;;;;;;;;;5107548;28;20098;-47
2023/03/04 14:11:24;;;;;;;18.10;11.50;;;;;;;;;;5106395;28;20043;-46
2023/03/04 14:13:51;;;;;;;15.85;10.32;;;;;;;;;;5107787;28;20036;-47
2023/03/04 14:16:21;;;;;;;17.60;11.05;;;;;;;;;;5099423;28;20462;-48
2023/03/04 14:18:56;;;;;;;14.38;8.88;;;;;;;;;;5107573;28;20101;-46
2023/03/04 14:21:22;;;;;;;16.13;10.20;;;;;;;;;;5107559;28;20111;-46
2023/03/04 14:23:59;;;;;;;14.27;8.75;;;;;;;;;;5106104;28;20028;-45
2023/03/04 14:26:25;;;;;;;14.80;9.05;;;;;;;;;;5107734;28;20068;-47
2023/03/04 14:28:56;;;;;;;16.10;10.05;;;;;;;;;;5107979;28;20024;-45
2023/03/04 14:31:23;;;;;;;16.08;10.20;;;;;;;;;;5107656;28;20604;-48
2023/03/04 14:33:52;;;;;;;14.63;9.20;;;;;;;;;;5108036;28;20493;-49
2023/03/04 14:36:20;;;;;;;14.35;9.10;;;;;;;;;;5108016;28;20023;-49
2023/03/04 14:38:51;;;;;;;14.07;8.75;;;;;;;;;;5107278;28;20027;-46
2023/03/04 14:41:18;;;;;;;13.88;9.02;;;;;;;;;;5109989;28;20161;-49
2023/03/04 14:44:05;;;;;;;13.90;8.52;;;;;;;;;;5112100;28;20080;-47
2023/03/04 14:46:53;;;;;;;13.68;7.90;;;;;;;;;;5111762;28;20039;-46
2023/03/04 14:49:19;;;;;;;12.57;8.52;;;;;;;;;;5091763;28;20479;-46
2023/03/04 14:51:47;;;;;;;11.68;7.43;;;;;;;;;;5099587;28;20028;-49
2023/03/04 14:54:33;;;;;;;11.20;7.25;;;;;;;;;;5108116;28;20019;-47
2023/03/04 14:57:00;;;;;;;10.43;6.63;;;;;;;;;;5107128;28;20120;-49
2023/03/04 14:59:34;;;;;;;11.00;7.22;;;;;;;;;;5112063;28;20103;-48
2023/03/04 15:02:35;;;;;;;13.85;8.63;;;;;;;;;;5111494;28;20110;-46
2023/03/04 15:05:08;;;;;;;13.07;8.65;;;;;;;;;;5048563;28;20481;-46
2023/03/04 15:07:35;;;;;;;14.38;8.20;;;;;;;;;;5084141;28;20064;-47
2023/03/04 15:10:02;;;;;;;14.30;9.15;;;;;;;;;;5094642;28;20450;-49
2023/03/04 15:12:30;;;;;;;11.60;7.65;;;;;;;;;;5110930;28;20047;-49
2023/03/04 15:14:59;;;;;;;11.75;7.85;;;;;;;;;;5111360;28;20467;-48
2023/03/04 15:17:28;;;;;;;11.88;6.80;;;;;;;;;;5113574;27;20033;-48
2023/03/04 15:20:00;;;;;;;11.23;7.40;;;;;;;;;;5131727;27;20019;-49
2023/03/04 15:22:26;;;;;;;12.75;7.78;;;;;;;;;;5130648;27;20072;-47
2023/03/04 15:24:52;;;;;;;11.50;7.05;;;;;;;;;;5131472;27;20490;-46
2023/03/04 15:27:22;;;;;;;10.80;7.25;;;;;;;;;;5131994;27;20020;-48
2023/03/04 15:29:49;;;;;;;11.10;7.50;;;;;;;;;;5132068;27;20379;-46
2023/03/04 15:32:15;;;;;;;11.98;7.43;;;;;;;;;;5131677;27;20019;-46
2023/03/04 15:34:41;;;;;;;12.40;7.13;;;;;;;;;;5132210;27;20110;-46
2023/03/04 15:37:14;;;;;;;8.60;6.03;;;;;;;;;;5131259;27;20749;-46
2023/03/04 15:39:40;;;;;;;10.50;6.78;;;;;;;;;;5118458;27;20080;-49
2023/03/04 15:42:09;;;;;;;9.05;6.35;;;;;;;;;;5129810;27;20498;-46
2023/03/04 15:44:35;;;;;;;9.77;6.57;;;;;;;;;;5130135;27;20039;-46
2023/03/04 15:47:01;;;;;;;9.48;6.50;;;;;;;;;;5130336;27;20521;-45
2023/03/04 15:49:28;;;;;;;8.20;5.97;;;;;;;;;;5130274;27;20063;-47
2023/03/04 15:51:54;;;;;;;12.43;6.47;;;;;;;;;;5129381;27;20019;-45
2023/03/04 15:54:22;;;;;;;10.07;5.85;;;;;;;;;;5124822;27;20557;-45
2023/03/04 15:56:48;;;;;;;10.52;6.72;;;;;;;;;;5128251;27;20036;-46
2023/03/04 15:59:15;;;;;;;10.68;6.78;;;;;;;;;;5132037;27;20045;-44
2023/03/04 16:01:41;;;;;;;10.73;6.68;;;;;;;;;;5126102;27;20114;-46
2023/03/04 16:04:11;;;;;;;10.07;7.00;;;;;;;;;;5129784;27;20044;-45
2023/03/04 16:06:37;;;;;;;9.73;5.75;;;;;;;;;;5129782;27;20110;-45
2023/03/04 16:09:03;;;;;;;9.45;6.22;;;;;;;;;;5129927;27;20027;-47
2023/03/04 16:11:30;;;;;;;10.25;6.75;;;;;;;;;;5130337;27;20015;-48
2023/03/04 16:13:56;;;;;;;10.13;5.97;;;;;;;;;;5128610;27;20405;-46
2023/03/04 16:16:22;;;;;;;10.15;6.30;;;;;;;;;;5136455;27;20035;-48
2023/03/04 16:18:48;;;;;;;9.50;5.90;;;;;;;;;;5115122;27;20505;-47
2023/03/04 16:21:16;;;;;;;10.00;6.60;;;;;;;;;;5103636;28;20502;-46
2023/03/04 16:23:43;;;;;;;10.35;6.75;;;;;;;;;;5107942;28;20035;-45
2023/03/04 16:26:29;;;;;;;9.13;5.97;;;;;;;;;;5109467;27;20023;-47
2023/03/04 16:28:55;;;;;;;10.18;6.05;;;;;;;;;;5100917;28;20077;-46
2023/03/04 16:31:21;;;;;;;10.18;6.13;;;;;;;;;;5107606;28;20020;-48
2023/03/04 16:33:49;;;;;;;9.23;5.95;;;;;;;;;;5107391;28;20326;-45
2023/03/04 16:36:22;;;;;;;9.50;5.90;;;;;;;;;;5107943;28;20088;-45
2023/03/04 16:38:49;;;;;;;9.00;5.53;;;;;;;;;;5108278;28;20032;-46
2023/03/04 16:41:15;;;;;;;8.95;5.95;;;;;;;;;;5107282;28;20122;-45
2023/03/04 16:43:41;;;;;;;7.82;4.82;;;;;;;;;;5107565;28;20028;-45
2023/03/04 16:46:08;;;;;;;9.07;5.90;;;;;;;;;;5108097;28;20521;-45
2023/03/04 16:48:34;;;;;;;9.35;5.78;;;;;;;;;;5108328;28;20076;-49
2023/03/04 16:51:02;;;;;;;8.43;5.43;;;;;;;;;;5108246;28;20634;-46
2023/03/04 16:53:32;;;;;;;9.95;5.90;;;;;;;;;;5103960;28;20510;-46
2023/03/04 16:56:00;;;;;;;8.55;5.70;;;;;;;;;;5100007;28;20028;-45
2023/03/04 16:58:26;;;;;;;9.77;5.90;;;;;;;;;;5088087;28;20491;-47
2023/03/04 17:00:52;;;;;;;9.05;5.93;;;;;;;;;;5107210;28;20503;-49
2023/03/04 17:03:18;;;;;;;10.00;6.03;;;;;;;;;;5106817;28;20077;-47
2023/03/04 17:05:46;;;;;;;9.02;5.50;;;;;;;;;;5106385;28;20076;-46
2023/03/04 17:08:12;;;;;;;9.32;6.25;;;;;;;;;;5104530;28;20026;-49
2023/03/04 17:10:39;;;;;;;8.15;5.28;;;;;;;;;;5100554;28;20036;-47
2023/03/04 17:13:05;;;;;;;9.63;6.15;;;;;;;;;;5105429;28;20028;-45
2023/03/04 17:15:31;;;;;;;8.60;5.25;;;;;;;;;;5107081;28;20379;-46
2023/03/04 17:17:57;;;;;;;8.95;5.45;;;;;;;;;;5106297;28;20502;-46
2023/03/04 17:20:23;;;;;;;9.57;5.97;;;;;;;;;;5106507;28;20035;-47
2023/03/04 17:22:49;;;;;;;9.80;5.90;;;;;;;;;;5105800;28;20051;-46
2023/03/04 17:25:15;;;;;;;8.63;5.50;;;;;;;;;;5106823;28;20025;-45
2023/03/04 17:27:42;;;;;;;11.13;6.40;;;;;;;;;;5106711;28;20051;-49
2023/03/04 17:30:09;;;;;;;10.52;6.43;;;;;;;;;;5088191;28;20343;-47
2023/03/04 17:32:37;;;;;;;10.95;6.60;;;;;;;;;;5103328;28;20176;-46
2023/03/04 17:35:04;;;;;;;10.23;6.25;;;;;;;;;;5103139;28;20028;-46
2023/03/04 17:37:30;;;;;;;10.90;6.45;;;;;;;;;;5103987;28;20016;-47
2023/03/04 17:39:56;;;;;;;10.85;6.47;;;;;;;;;;5101378;28;20059;-48
2023/03/04 17:42:22;;;;;;;11.98;6.63;;;;;;;;;;5100848;28;20471;-46
2023/03/04 17:44:48;;;;;;;10.45;6.60;;;;;;;;;;5085445;28;20023;-46
2023/03/04 17:47:14;;;;;;;9.02;6.25;;;;;;;;;;5105883;28;20027;-48
2023/03/04 17:49:41;;;;;;;10.15;5.72;;;;;;;;;;5084587;28;20507;-48
2023/03/04 17:52:08;;;;;;;8.90;5.90;;;;;;;;;;5083951;28;20031;-48
2023/03/04 17:54:36;;;;;;;11.30;6.35;;;;;;;;;;5104795;28;20094;-46
2023/03/04 17:57:04;;;;;;;11.15;6.75;;;;;;;;;;5104484;28;20058;-47
2023/03/04 17:59:30;;;;;;;11.57;6.95;;;;;;;;;;5086835;28;20077;-49
2023/03/04 18:01:56;;;;;;;9.95;6.40;;;;;;;;;;5104496;28;20031;-48
2023/03/04 18:04:22;;;;;;;12.13;6.30;;;;;;;;;;5104858;28;20486;-49
2023/03/04 18:06:48;;;;;;;12.35;7.20;;;;;;;;;;5105514;28;20019;-48
2023/03/04 18:09:14;;;;;;;11.95;6.95;;;;;;;;;;5106201;28;20070;-46
2023/03/04 18:11:41;;;;;;;12.93;7.35;;;;;;;;;;5106914;28;20559;-47
2023/03/04 18:14:07;;;;;;;12.13;7.80;;;;;;;;;;5105627;28;20024;-46
2023/03/04 18:16:33;;;;;;;10.02;6.40;;;;;;;;;;5105714;28;20036;-49
2023/03/04 18:19:00;;;;;;;11.98;6.68;;;;;;;;;;5121834;27;20033;-45
2023/03/04 18:21:27;;;;;;;11.88;7.22;;;;;;;;;;5123472;27;20045;-48
2023/03/04 18:23:54;;;;;;;9.07;5.93;;;;;;;;;;5124902;27;20119;-48
2023/03/04 18:26:22;;;;;;;9.32;6.10;;;;;;;;;;5125822;27;20031;-49
2023/03/04 18:28:48;;;;;;;7.97;5.50;;;;;;;;;;5125903;27;20023;-49
2023/03/04 18:31:17;;;;;;;10.48;5.63;;;;;;;;;;5125855;28;20733;-46
2023/03/04 18:33:44;;;;;;;10.52;6.85;;;;;;;;;;5126565;28;20057;-47
2023/03/04 18:36:10;;;;;;;10.52;7.10;;;;;;;;;;5127844;27;20030;-46
2023/03/04 18:38:37;;;;;;;10.30;6.68;;;;;;;;;;5128914;27;20023;-46
2023/03/04 18:41:07;;;;;;;13.43;7.47;;;;;;;;;;5125111;28;20031;-48
2023/03/04 18:43:34;;;;;;;12.27;7.13;;;;;;;;;;5124833;28;20517;-47
2023/03/04 18:46:05;;;;;;;10.30;6.38;;;;;;;;;;5124035;28;20059;-47
2023/03/04 18:48:32;;;;;;;11.85;7.45;;;;;;;;;;5122775;27;20023;-47
2023/03/04 18:50:58;;;;;;;10.65;6.22;;;;;;;;;;5123892;28;20308;-47
2023/03/04 18:53:28;;;;;;;10.38;5.82;;;;;;;;;;5124640;28;20027;-45
2023/03/04 18:56:00;;;;;;;11.60;5.85;;;;;;;;;;5123918;28;20047;-48
2023/03/04 18:58:26;;;;;;;11.52;6.60;;;;;;;;;;5124816;28;20019;-45
2023/03/04 19:00:53;;;;;;;11.10;6.57;;;;;;;;;;5123142;28;20261;-46
2023/03/04 19:03:20;;;;;;;12.98;7.15;;;;;;;;;;5123987;27;20110;-47
2023/03/04 19:05:46;;;;;;;9.55;6.25;;;;;;;;;;5123792;28;20053;-46
2023/03/04 19:08:13;;;;;;;12.98;7.07;;;;;;;;;;5123391;28;20084;-46
2023/03/04 19:10:39;;;;;;;10.93;6.90;;;;;;;;;;5123057;28;20023;-45
2023/03/04 19:13:05;;;;;;;11.55;6.85;;;;;;;;;;5122891;28;20023;-46
2023/03/04 19:15:31;;;;;;;12.80;6.90;;;;;;;;;;5123630;28;20037;-47
2023/03/04 19:17:57;;;;;;;12.52;7.20;;;;;;;;;;5121846;27;20360;-48
2023/03/04 19:20:23;;;;;;;13.48;7.88;;;;;;;;;;5123961;28;20362;-46
2023/03/04 19:22:50;;;;;;;15.05;7.72;;;;;;;;;;5123210;28;20031;-47
2023/03/04 19:25:16;;;;;;;10.88;6.40;;;;;;;;;;5124442;28;20027;-49
2023/03/04 19:27:42;;;;;;;12.93;7.13;;;;;;;;;;5125317;27;20106;-48
2023/03/04 19:30:08;;;;;;;10.98;6.45;;;;;;;;;;5128212;27;20046;-46
2023/03/04 19:32:34;;;;;;;11.10;6.45;;;;;;;;;;5126750;27;20034;-46
2023/03/04 19:35:00;;;;;;;12.38;7.43;;;;;;;;;;5127540;27;20406;-46
2023/03/04 19:37:27;;;;;;;12.55;6.95;;;;;;;;;;5128172;27;20030;-46
2023/03/04 19:39:54;;;;;;;15.52;8.73;;;;;;;;;;5127914;27;20436;-45
2023/03/04 19:42:20;;;;;;;16.00;8.38;;;;;;;;;;5128063;27;20054;-48
2023/03/04 19:44:46;;;;;;;15.05;8.27;;;;;;;;;;5125886;27;20119;-50
2023/03/04 19:47:12;;;;;;;17.35;9.70;;;;;;;;;;5126860;27;20492;-46